Abbeville, Georgia
Current Conditions -  °F | °C
As of 9:15 AM on Thursday 30 Oct 2014 (Local Time) from KEZM Reporting Station
Clear Clear  
Wind Chill: 12°   Ceiling: Unl
Heat Index: 12°   Visibility: 10mi
Dew Point: 10°   Wind: 3mph
Humidity: 90%   Direction: 360°N
Pressure: 30.06"   Gusts: NA
Location:  31.99°N, 83.31°W
Report Text: KEZM 301315Z AUTO 36003KT 10SM CLR 12/10 A3006 RMK AO2 LTG DSNT S T01200104
Loading
Personal Weather Stations






























Interactive Weather Map
Tropical Storm Tracking
New forecast layout! Learn more

10-Day Weather Forecast

Advertisements
Track Severe Weather on mobile